Time;durP1;ratioP1;P1;durP2;ratioP2;P2;SDS_P1;SDS_P2;PMS_P1;PMS_P2;Temp;Humidity;BMP_temperature;BMP_pressure;BME280_temperature;BME280_humidity;BME280_pressure;Samples;Min_cycle;Max_cycle;Signal;HPM_P1;HPM_P2
2021/11/15 00:01:43;;;;;;;1.23;1.23;;;;;;;0.91;69.82;101000.00;6334020;22;20015;-76
2021/11/15 00:04:14;;;;;;;0.90;0.90;;;;;;;0.87;70.29;100993.13;6333577;22;20022;-75
2021/11/15 00:06:40;;;;;;;1.02;1.02;;;;;;;0.91;68.73;100994.88;6305844;22;20023;-74
2021/11/15 00:09:07;;;;;;;0.52;0.52;;;;;;;0.96;69.18;101000.88;6332919;22;20022;-75
2021/11/15 00:11:33;;;;;;;0.73;0.73;;;;;;;0.96;69.61;101003.44;6280216;22;20019;-75
2021/11/15 00:13:59;;;;;;;0.50;0.50;;;;;;;0.89;70.66;101009.41;6333200;22;20023;-75
2021/11/15 00:16:25;;;;;;;0.60;0.60;;;;;;;0.93;70.43;100995.72;6280863;22;20357;-76
2021/11/15 00:18:51;;;;;;;1.08;1.08;;;;;;;0.88;70.26;100997.41;6306394;22;20032;-74
2021/11/15 00:21:17;;;;;;;0.90;0.90;;;;;;;0.87;71.78;101005.97;6332192;22;20030;-77
2021/11/15 00:23:43;;;;;;;0.65;0.65;;;;;;;0.84;69.64;101012.81;6333501;22;20051;-76
2021/11/15 00:26:09;;;;;;;0.73;0.73;;;;;;;0.92;67.60;101013.69;6333138;22;20030;-76
2021/11/15 00:28:35;;;;;;;0.90;0.90;;;;;;;0.93;68.56;100995.72;6331585;22;20014;-74
2021/11/15 00:31:01;;;;;;;1.30;1.20;;;;;;;0.91;68.44;101012.84;6331092;22;20042;-80
2021/11/15 00:33:27;;;;;;;0.88;0.88;;;;;;;0.91;68.37;101025.72;6332803;22;20014;-78
2021/11/15 00:35:53;;;;;;;0.60;0.60;;;;;;;0.91;66.82;101022.28;6331084;22;20018;-79
2021/11/15 00:38:19;;;;;;;0.60;0.60;;;;;;;0.82;67.23;101012.81;6333106;22;20446;-77
2021/11/15 00:40:46;;;;;;;1.00;0.90;;;;;;;0.90;67.72;101033.41;6332773;22;20065;-77
2021/11/15 00:43:12;;;;;;;0.70;0.70;;;;;;;0.93;66.89;101029.13;6333044;22;20022;-78
2021/11/15 00:45:38;;;;;;;0.45;0.45;;;;;;;0.90;67.63;101047.13;6331457;22;20049;-77
2021/11/15 00:48:05;;;;;;;0.55;0.55;;;;;;;0.90;67.60;101041.97;6333061;22;20019;-77
2021/11/15 00:50:31;;;;;;;0.85;0.85;;;;;;;0.89;67.76;101040.25;6332914;22;20050;-78
2021/11/15 00:52:57;;;;;;;14.27;1.35;;;;;;;0.87;68.36;101041.97;6331331;22;20362;-76
2021/11/15 00:55:23;;;;;;;0.82;0.82;;;;;;;0.85;68.03;101033.38;6305475;22;20103;-76
2021/11/15 00:57:49;;;;;;;1.30;1.30;;;;;;;0.71;68.60;101013.63;6279445;22;20015;-78
2021/11/15 01:00:24;;;;;;;0.98;0.98;;;;;;;0.83;69.33;101044.50;6331583;22;20014;-78
2021/11/15 01:02:50;;;;;;;0.80;0.80;;;;;;;0.82;69.29;101048.78;6331078;22;20018;-78
2021/11/15 01:05:16;;;;;;;0.70;0.70;;;;;;;0.81;69.79;101057.38;6330935;22;20018;-78
2021/11/15 01:07:42;;;;;;;1.15;1.15;;;;;;;0.76;69.04;101048.75;6305287;22;20025;-77
2021/11/15 01:10:09;;;;;;;1.25;1.25;;;;;;;0.68;69.72;101065.88;6331118;22;20018;-76
2021/11/15 01:12:35;;;;;;;0.80;0.80;;;;;;;0.75;69.20;101057.34;6333047;22;20034;-77
2021/11/15 01:15:02;;;;;;;0.85;0.85;;;;;;;0.68;69.24;101060.75;6330854;22;20105;-77
2021/11/15 01:17:29;;;;;;;2.63;1.05;;;;;;;0.63;68.59;101067.56;6332971;22;20071;-76
2021/11/15 01:19:55;;;;;;;0.90;0.90;;;;;;;0.61;69.23;101073.53;6332672;22;20099;-76
2021/11/15 01:22:21;;;;;;;2.50;1.17;;;;;;;0.61;68.85;101079.53;6305386;22;20637;-77
2021/11/15 01:24:47;;;;;;;0.80;0.80;;;;;;;0.62;68.43;101078.69;6332530;22;20045;-77
2021/11/15 01:27:13;;;;;;;0.93;0.88;;;;;;;0.59;67.97;101091.50;6332817;22;20038;-77
2021/11/15 01:29:39;;;;;;;0.70;0.70;;;;;;;0.58;68.28;101084.66;6304927;22;20054;-77
2021/11/15 01:32:05;;;;;;;0.57;0.57;;;;;;;0.55;68.65;101087.22;6332555;22;20331;-80
2021/11/15 01:34:32;;;;;;;0.60;0.60;;;;;;;0.53;68.69;101081.19;6332566;22;20403;-80
2021/11/15 01:36:58;;;;;;;0.90;0.90;;;;;;;0.54;68.97;101082.94;6330807;22;20053;-80
2021/11/15 01:39:24;;;;;;;0.60;0.60;;;;;;;0.57;69.23;101102.63;6332845;22;20276;-79
2021/11/15 01:41:51;;;;;;;0.50;0.50;;;;;;;0.53;69.40;101106.88;6330357;22;20046;-80
2021/11/15 01:44:17;;;;;;;1.00;1.00;;;;;;;0.55;69.57;101089.78;6332791;22;20071;-80
2021/11/15 01:46:43;;;;;;;0.70;0.70;;;;;;;0.55;70.17;101110.34;6331503;22;20018;-80
2021/11/15 01:49:09;;;;;;;0.63;0.63;;;;;;;0.48;71.48;101124.84;6332164;22;20015;-79
2021/11/15 01:51:35;;;;;;;1.13;1.08;;;;;;;0.45;68.70;101111.13;6331157;22;20362;-80
2021/11/15 01:54:01;;;;;;;0.60;0.60;;;;;;;0.26;68.46;101093.88;6331260;22;20022;-79
2021/11/15 01:56:27;;;;;;;0.63;0.63;;;;;;;0.39;67.90;101105.97;6332526;22;20023;-80
2021/11/15 01:58:53;;;;;;;6.60;0.73;;;;;;;0.47;67.75;101104.28;6332482;22;20015;-79
2021/11/15 02:01:19;;;;;;;0.80;0.80;;;;;;;0.47;68.53;101138.53;6332217;22;20026;-78
2021/11/15 02:03:45;;;;;;;0.60;0.60;;;;;;;0.45;68.86;101135.13;6332426;22;20072;-78
2021/11/15 02:06:11;;;;;;;0.77;0.68;;;;;;;0.46;68.67;101141.94;6332061;22;20503;-77
2021/11/15 02:08:38;;;;;;;0.60;0.60;;;;;;;0.44;69.46;101146.22;6332792;22;20019;-78
2021/11/15 02:11:04;;;;;;;0.60;0.60;;;;;;;0.50;67.87;101137.69;6332340;22;20014;-78
2021/11/15 02:13:30;;;;;;;0.55;0.55;;;;;;;0.43;69.13;101126.53;6332843;22;20326;-78
2021/11/15 02:15:56;;;;;;;0.73;0.73;;;;;;;0.48;69.09;101142.84;6330684;22;20098;-80
2021/11/15 02:18:22;;;;;;;0.52;0.52;;;;;;;0.52;69.45;101159.13;6331176;22;20509;-80
2021/11/15 02:20:59;;;;;;;0.60;0.60;;;;;;;0.52;69.87;101162.53;6305488;22;20038;-80
2021/11/15 02:23:42;;;;;;;2.30;0.60;;;;;;;0.49;70.15;101171.97;6331254;22;20342;-80
2021/11/15 02:26:09;;;;;;;0.60;0.60;;;;;;;0.49;70.60;101174.53;6332617;22;20022;-80
2021/11/15 02:28:38;;;;;;;0.73;0.73;;;;;;;0.45;70.71;101160.81;6332353;22;20025;-81
2021/11/15 02:31:04;;;;;;;0.63;0.63;;;;;;;0.45;71.03;101170.22;6332288;22;20152;-78
2021/11/15 02:33:31;;;;;;;2.70;0.80;;;;;;;0.46;70.83;101159.94;6304388;22;20030;-79
2021/11/15 02:35:58;;;;;;;0.85;0.85;;;;;;;0.42;72.38;101185.59;6332293;22;20023;-81
2021/11/15 02:38:24;;;;;;;0.63;0.63;;;;;;;0.44;72.22;101176.19;6332333;22;20011;-79
2021/11/15 02:40:50;;;;;;;0.57;0.57;;;;;;;0.42;70.43;101177.91;6332580;22;20109;-79
2021/11/15 02:43:16;;;;;;;0.50;0.50;;;;;;;0.45;71.37;101183.91;6332650;22;20603;-78
2021/11/15 02:45:42;;;;;;;0.80;0.80;;;;;;;0.40;72.51;101190.72;6332339;22;20050;-76
2021/11/15 02:48:08;;;;;;;0.55;0.55;;;;;;;0.37;72.48;101192.38;6304912;22;20022;-78
2021/11/15 02:50:34;;;;;;;0.60;0.60;;;;;;;0.39;70.97;101186.41;6332416;22;20109;-78
2021/11/15 02:53:05;;;;;;;0.75;0.75;;;;;;;0.33;71.43;101188.06;6330686;22;20480;-79
2021/11/15 02:55:31;;;;;;;0.60;0.60;;;;;;;0.38;71.73;101173.56;6331902;22;20022;-77
2021/11/15 02:57:58;;;;;;;0.70;0.70;;;;;;;0.37;70.76;101198.41;6332358;22;20022;-78
2021/11/15 03:00:33;;;;;;;0.50;0.50;;;;;;;0.39;71.24;101198.41;6332553;22;20010;-79
2021/11/15 03:03:00;;;;;;;0.82;0.82;;;;;;;0.32;72.00;101212.06;6333951;22;20015;-78
2021/11/15 03:05:30;;;;;;;0.70;0.70;;;;;;;0.36;71.44;101211.25;6332538;22;20021;-78
2021/11/15 03:07:57;;;;;;;0.80;0.80;;;;;;;0.36;71.64;101206.94;6308040;22;20046;-79
2021/11/15 03:10:23;;;;;;;0.60;0.60;;;;;;;0.32;71.81;101205.22;6333746;22;20480;-80
2021/11/15 03:12:49;;;;;;;0.70;0.70;;;;;;;0.35;72.40;101219.78;6335062;22;20025;-80
2021/11/15 03:15:43;;;;;;;0.80;0.80;;;;;;;0.30;73.28;101212.03;6333979;22;20019;-81
2021/11/15 03:18:13;;;;;;;0.52;0.52;;;;;;;0.26;74.09;101212.00;6331098;22;20026;-80
2021/11/15 03:21:06;;;;;;;0.70;0.70;;;;;;;0.25;74.32;101207.72;6333932;22;20021;-80
2021/11/15 03:23:33;;;;;;;0.75;0.70;;;;;;;0.27;74.82;101226.53;6330497;22;20030;-80
2021/11/15 03:25:59;;;;;;;0.63;0.63;;;;;;;0.23;74.73;101219.69;6307118;22;20400;-78
2021/11/15 03:28:28;;;;;;;0.50;0.50;;;;;;;0.26;74.59;101222.28;6306658;22;20022;-80
2021/11/15 03:30:57;;;;;;;0.70;0.70;;;;;;;0.28;74.39;101241.13;6329879;22;20054;-80
2021/11/15 03:33:25;;;;;;;0.77;0.77;;;;;;;0.20;75.15;101240.16;6305199;22;20063;-81
2021/11/15 03:35:51;;;;;;;0.60;0.60;;;;;;;0.25;73.93;101236.81;6329865;22;20023;-77
2021/11/15 03:38:17;;;;;;;0.50;0.50;;;;;;;0.24;74.70;101252.19;6330355;22;20021;-77
2021/11/15 03:40:43;;;;;;;1.00;1.00;;;;;;;0.22;73.22;101247.06;6331816;22;20549;-80
2021/11/15 03:43:10;;;;;;;1.00;1.00;;;;;;;0.16;74.35;101256.41;6329806;22;20076;-79
2021/11/15 03:45:36;;;;;;;0.50;0.50;;;;;;;0.20;74.80;101245.31;6332255;22;20025;-82
2021/11/15 03:48:04;;;;;;;0.80;0.70;;;;;;;0.23;73.04;101240.22;6332015;22;20514;-82
2021/11/15 03:50:30;;;;;;;0.80;0.80;;;;;;;0.26;72.70;101235.94;6332339;22;20010;-82
2021/11/15 03:52:57;;;;;;;0.70;0.70;;;;;;;0.26;73.03;101251.34;6332002;22;20081;-81
2021/11/15 03:55:23;;;;;;;0.90;0.90;;;;;;;0.24;72.20;101253.06;6330648;22;20010;-82
2021/11/15 03:57:50;;;;;;;1.10;1.10;;;;;;;0.25;71.21;101253.94;6333557;22;20423;-80
2021/11/15 04:00:18;;;;;;;0.70;0.70;;;;;;;0.32;71.06;101230.03;6333190;22;20018;-80
2021/11/15 04:02:49;;;;;;;0.80;0.80;;;;;;;0.27;71.41;101258.22;6284334;22;20018;-81
2021/11/15 04:05:22;;;;;;;0.45;0.45;;;;;;;0.24;71.86;101267.59;6347102;22;20018;-82
2021/11/15 04:07:49;;;;;;;0.90;0.90;;;;;;;0.21;71.66;101268.44;6345942;22;20015;-81
2021/11/15 04:10:18;;;;;;;1.00;0.65;;;;;;;0.28;71.41;101269.38;6334970;22;20086;-80
2021/11/15 04:12:44;;;;;;;0.60;0.60;;;;;;;0.27;71.16;101267.63;6338087;22;20473;-82
2021/11/15 04:15:11;;;;;;;1.17;1.02;;;;;;;0.29;70.75;101281.38;6333694;22;20026;-82
2021/11/15 04:17:38;;;;;;;1.00;1.00;;;;;;;0.30;70.72;101278.78;6332346;22;20019;-78
2021/11/15 04:20:05;;;;;;;1.13;1.02;;;;;;;0.31;70.88;101295.06;6331100;22;20022;-80
2021/11/15 04:22:31;;;;;;;0.93;0.93;;;;;;;0.30;71.22;101301.03;6332718;22;20018;-80
2021/11/15 04:24:57;;;;;;;1.33;1.08;;;;;;;0.26;71.93;101312.16;6332095;22;20018;-81
2021/11/15 04:27:23;;;;;;;0.50;0.50;;;;;;;0.26;72.14;101312.16;6332200;22;20407;-80
2021/11/15 04:29:49;;;;;;;0.70;0.70;;;;;;;0.28;72.09;101315.59;6332040;22;20098;-79
2021/11/15 04:32:15;;;;;;;1.00;1.00;;;;;;;0.31;72.20;101325.88;6329484;22;20026;-77
2021/11/15 04:34:41;;;;;;;0.98;0.98;;;;;;;0.29;72.59;101337.84;6332097;22;20023;-83
2021/11/15 04:37:07;;;;;;;1.00;1.00;;;;;;;0.29;71.71;101317.31;6331075;22;20083;-82
2021/11/15 04:39:33;;;;;;;0.70;0.70;;;;;;;0.26;71.35;101322.41;6333228;22;20061;-80
2021/11/15 04:41:58;;;;;;;0.60;0.60;;;;;;;0.21;72.23;101334.34;6305087;22;20514;-81
2021/11/15 04:44:24;;;;;;;0.70;0.70;;;;;;;0.18;72.48;101326.59;6330622;22;20076;-80
2021/11/15 04:46:50;;;;;;;0.63;0.63;;;;;;;0.19;72.69;101359.16;6332749;22;20015;-79
2021/11/15 04:49:16;;;;;;;0.55;0.55;;;;;;;0.14;72.45;101345.38;6331179;22;20018;-79
2021/11/15 04:51:42;;;;;;;0.90;0.90;;;;;;;0.10;72.21;101369.31;6330852;22;20458;-80
2021/11/15 04:54:09;;;;;;;0.70;0.70;;;;;;;0.07;71.85;101358.97;6303631;22;20042;-79
2021/11/15 04:56:35;;;;;;;1.15;1.15;;;;;;;0.09;72.15;101381.28;6329939;22;20041;-79
2021/11/15 04:59:01;;;;;;;1.00;1.00;;;;;;;0.05;72.10;101358.97;6329823;22;20364;-79
2021/11/15 05:01:27;;;;;;;0.60;0.60;;;;;;;0.03;72.59;101383.78;6331486;22;20097;-79
2021/11/15 05:03:53;;;;;;;0.95;0.95;;;;;;;-0.02;73.34;101404.25;6329563;22;20109;-77
2021/11/15 05:06:18;;;;;;;0.75;0.75;;;;;;;-0.07;72.36;101380.25;6277980;22;20390;-80
2021/11/15 05:08:46;;;;;;;0.73;0.73;;;;;;;0.04;70.99;101392.31;6329649;22;20023;-81
2021/11/15 05:11:11;;;;;;;0.98;0.98;;;;;;;0.07;68.73;101387.22;6330788;22;20855;-80
2021/11/15 05:13:37;;;;;;;2.00;1.38;;;;;;;0.09;69.18;101398.38;6330101;22;20122;-81
2021/11/15 05:16:04;;;;;;;3.10;1.05;;;;;;;0.11;69.97;101395.00;6329678;22;20046;-80
2021/11/15 05:18:30;;;;;;;0.80;0.80;;;;;;;0.12;70.09;101401.00;6330012;22;20072;-77
2021/11/15 05:20:56;;;;;;;0.60;0.60;;;;;;;0.16;68.82;101407.91;6331007;22;20446;-79
2021/11/15 05:23:22;;;;;;;1.38;1.30;;;;;;;0.15;68.46;101413.84;6329915;22;20060;-78
2021/11/15 05:25:48;;;;;;;0.57;0.57;;;;;;;0.17;69.08;101419.88;6329695;22;20018;-76
2021/11/15 05:28:14;;;;;;;0.57;0.57;;;;;;;0.14;69.29;101409.56;6303715;22;20029;-76
2021/11/15 05:30:40;;;;;;;1.15;1.15;;;;;;;0.20;68.05;101419.91;6331225;22;20015;-76
2021/11/15 05:33:06;;;;;;;0.80;0.80;;;;;;;0.20;68.30;101407.94;6332066;22;20716;-78
2021/11/15 05:35:32;;;;;;;1.33;1.30;;;;;;;0.20;66.64;101440.44;6329179;22;20030;-78
2021/11/15 05:37:58;;;;;;;1.27;1.17;;;;;;;0.19;68.20;101439.59;6331076;22;20018;-80
2021/11/15 05:40:26;;;;;;;1.10;1.10;;;;;;;0.22;68.59;101441.34;6278286;22;20022;-79
2021/11/15 05:42:53;;;;;;;0.70;0.70;;;;;;;0.26;68.02;101432.84;6329339;22;20026;-78
2021/11/15 05:45:21;;;;;;;1.23;1.08;;;;;;;0.27;67.10;101431.97;6331039;22;20034;-78
2021/11/15 05:47:47;;;;;;;1.00;1.00;;;;;;;0.26;67.11;101448.25;6331453;22;20697;-78
2021/11/15 05:50:13;;;;;;;0.77;0.77;;;;;;;0.27;67.28;101452.53;6329299;22;20014;-80
2021/11/15 05:52:42;;;;;;;0.77;0.77;;;;;;;0.29;66.39;101448.28;6331382;22;20021;-78
2021/11/15 05:55:09;;;;;;;0.90;0.90;;;;;;;0.30;67.32;101460.25;6329603;22;20018;-79
2021/11/15 05:57:35;;;;;;;0.80;0.80;;;;;;;0.27;67.63;101463.66;6329848;22;20060;-78
2021/11/15 06:00:03;;;;;;;0.98;0.98;;;;;;;0.32;67.58;101453.47;6329272;22;20056;-80
2021/11/15 06:02:36;;;;;;;1.23;1.15;;;;;;;0.30;67.90;101456.00;6329453;22;20019;-79
2021/11/15 06:05:02;;;;;;;0.52;0.52;;;;;;;0.34;67.32;101455.19;6303322;22;20079;-79
2021/11/15 06:07:28;;;;;;;1.35;1.35;;;;;;;0.32;67.36;101462.03;6303867;22;20049;-78
2021/11/15 06:09:54;;;;;;;0.90;0.90;;;;;;;0.35;66.29;101453.50;6331069;22;20343;-78
2021/11/15 06:12:20;;;;;;;1.05;1.05;;;;;;;0.38;66.75;101458.66;6330948;22;20049;-76
2021/11/15 06:14:46;;;;;;;0.90;0.90;;;;;;;0.37;65.93;101459.50;6331047;22;20019;-77
2021/11/15 06:17:12;;;;;;;0.80;0.80;;;;;;;0.42;66.42;101473.28;6331051;22;20022;-76
2021/11/15 06:19:38;;;;;;;0.98;0.98;;;;;;;0.49;65.98;101485.34;6329667;22;20030;-77
2021/11/15 06:22:04;;;;;;;0.75;0.75;;;;;;;0.51;65.81;101484.53;6328965;22;20032;-78
2021/11/15 06:24:30;;;;;;;0.70;0.70;;;;;;;0.50;65.92;101487.06;6329076;22;20050;-76
2021/11/15 06:26:57;;;;;;;0.75;0.75;;;;;;;0.50;65.43;101471.66;6330581;22;20462;-78
2021/11/15 06:29:23;;;;;;;0.63;0.63;;;;;;;0.53;66.01;101492.22;6330709;22;20014;-77
2021/11/15 06:31:49;;;;;;;0.82;0.82;;;;;;;0.56;65.82;101484.56;6331345;22;20014;-78
2021/11/15 06:34:15;;;;;;;1.00;1.00;;;;;;;0.58;65.56;101493.16;6332641;22;20102;-79
2021/11/15 06:36:41;;;;;;;0.70;0.70;;;;;;;0.61;65.66;101494.91;6331751;22;20025;-81
2021/11/15 06:39:08;;;;;;;1.77;1.67;;;;;;;0.65;64.67;101499.25;6331872;22;20025;-79
2021/11/15 06:42:08;;;;;;;;;;;;;;;;;;;;;
2021/11/15 06:44:35;;;;;;;0.70;0.70;;;;;;;0.61;65.16;101493.19;6314681;22;20029;-79
2021/11/15 06:47:02;;;;;;;0.90;0.90;;;;;;;0.63;65.68;101509.50;6333603;22;20015;-79
2021/11/15 06:49:28;;;;;;;0.98;0.98;;;;;;;0.60;65.83;101506.88;6333991;22;20011;-76
2021/11/15 06:51:54;;;;;;;1.00;1.00;;;;;;;0.65;65.15;101522.38;6332904;22;20021;-78
2021/11/15 06:54:22;;;;;;;0.55;0.55;;;;;;;0.69;65.98;101530.13;6334995;22;20023;-78
2021/11/15 06:57:12;;;;;;;0.82;0.82;;;;;;;0.68;65.75;101528.41;6334156;22;20019;-78
2021/11/15 06:59:39;;;;;;;0.70;0.70;;;;;;;0.63;66.10;101535.19;6330702;22;20021;-78
2021/11/15 07:02:07;;;;;;;0.70;0.70;;;;;;;0.59;66.71;101543.69;6332239;22;20019;-80
2021/11/15 07:04:33;;;;;;;0.90;0.90;;;;;;;0.66;67.06;101566.06;6309032;22;20022;-80
2021/11/15 07:07:00;;;;;;;0.63;0.63;;;;;;;0.65;67.63;101572.06;6336845;22;20015;-81
2021/11/15 07:09:26;;;;;;;1.10;1.10;;;;;;;0.55;67.63;101570.22;6316031;22;20018;-79
2021/11/15 07:11:52;;;;;;;1.00;1.00;;;;;;;0.56;67.83;101579.63;6316113;22;20014;-78
2021/11/15 07:14:18;;;;;;;0.55;0.55;;;;;;;0.56;68.24;101574.47;6340711;22;20025;-79
2021/11/15 07:16:44;;;;;;;1.30;1.30;;;;;;;0.55;68.65;101572.78;6333389;22;20454;-80
2021/11/15 07:19:10;;;;;;;1.10;1.08;;;;;;;0.48;69.15;101564.13;6332039;22;20121;-78
2021/11/15 07:21:36;;;;;;;1.00;1.00;;;;;;;0.49;69.50;101588.13;6304189;22;20062;-77
2021/11/15 07:24:02;;;;;;;1.30;1.30;;;;;;;0.49;69.60;101593.25;6332502;22;20029;-78
2021/11/15 07:26:28;;;;;;;1.50;1.50;;;;;;;0.47;69.38;101600.94;6330788;22;20018;-78
2021/11/15 07:28:57;;;;;;;1.45;1.45;;;;;;;0.44;68.72;101615.44;6331380;22;20068;-79
2021/11/15 07:31:25;;;;;;;0.80;0.80;;;;;;;0.47;69.75;101592.34;6330881;22;20018;-77
2021/11/15 07:33:51;;;;;;;1.80;1.70;;;;;;;0.47;69.80;101612.91;6332716;22;20023;-78
2021/11/15 07:36:17;;;;;;;4.22;1.02;;;;;;;0.42;70.05;101623.13;6304251;22;20033;-80
2021/11/15 07:38:43;;;;;;;1.10;1.10;;;;;;;0.49;67.87;101634.34;6332492;22;20019;-79
2021/11/15 07:41:09;;;;;;;0.90;0.90;;;;;;;0.45;67.87;101614.59;6331349;22;20019;-77
2021/11/15 07:43:35;;;;;;;1.00;1.00;;;;;;;0.50;68.64;101643.78;6332298;22;20109;-78
2021/11/15 07:46:02;;;;;;;0.50;0.50;;;;;;;0.48;69.03;101654.03;6331858;22;20018;-78
2021/11/15 07:48:28;;;;;;;1.15;1.15;;;;;;;0.40;69.18;101654.75;6304934;22;20053;-77
2021/11/15 07:50:55;;;;;;;1.73;1.73;;;;;;;0.43;69.49;101670.22;6278997;22;20026;-77
2021/11/15 07:53:22;;;;;;;0.60;0.60;;;;;;;0.45;68.72;101673.69;6331553;22;20015;-78
2021/11/15 07:55:48;;;;;;;1.80;1.17;;;;;;;0.46;67.70;101663.41;6329387;22;20106;-80
2021/11/15 07:58:15;;;;;;;0.88;0.88;;;;;;;0.37;66.31;101672.69;6327351;22;20045;-80
2021/11/15 08:00:41;;;;;;;0.60;0.60;;;;;;;0.54;66.54;101684.09;6279301;22;20019;-78
2021/11/15 08:03:07;;;;;;;0.90;0.90;;;;;;;0.54;66.10;101691.81;6304313;22;20023;-81
2021/11/15 08:05:34;;;;;;;0.70;0.70;;;;;;;0.49;65.42;101670.31;6305576;22;20385;-81
2021/11/15 08:08:00;;;;;;;0.80;0.80;;;;;;;0.59;66.24;101684.19;6330867;22;20096;-80
2021/11/15 08:10:26;;;;;;;1.23;1.13;;;;;;;0.60;66.10;101685.88;6332193;22;20018;-81
2021/11/15 08:12:54;;;;;;;1.13;1.13;;;;;;;0.47;66.49;101689.97;6331507;22;20488;-80
2021/11/15 08:15:21;;;;;;;1.02;1.02;;;;;;;0.47;67.39;101682.25;6331012;22;20019;-81
2021/11/15 08:17:49;;;;;;;1.00;1.00;;;;;;;0.48;68.31;101699.41;6305300;22;20018;-80
2021/11/15 08:20:18;;;;;;;0.77;0.77;;;;;;;0.48;67.23;101714.84;6332142;22;20021;-80
2021/11/15 08:22:47;;;;;;;0.70;0.70;;;;;;;0.49;68.75;101721.72;6330324;22;20080;-81
2021/11/15 08:25:39;;;;;;;0.93;0.93;;;;;;;0.50;68.58;101715.72;6330029;22;20098;-83
2021/11/15 08:28:05;;;;;;;0.60;0.60;;;;;;;0.50;69.38;101732.00;6307164;22;20049;-80
2021/11/15 08:30:32;;;;;;;0.90;0.90;;;;;;;0.52;69.84;101722.59;6335088;22;20014;-79
2021/11/15 08:32:59;;;;;;;0.70;0.70;;;;;;;0.48;69.49;101732.81;6334733;22;20079;-82
2021/11/15 08:35:25;;;;;;;0.80;0.80;;;;;;;0.38;70.49;101734.38;6335304;22;20049;-78
2021/11/15 08:38:03;;;;;;;1.30;1.30;;;;;;;0.38;71.11;101736.06;6279693;22;20050;-79
2021/11/15 08:40:29;;;;;;;1.60;1.58;;;;;;;0.39;70.76;101740.38;6329838;22;20079;-79
2021/11/15 08:42:55;;;;;;;0.70;0.70;;;;;;;0.44;71.07;101749.00;6333055;22;20461;-81
2021/11/15 08:45:21;;;;;;;1.00;1.00;;;;;;;0.49;71.26;101757.69;6280131;22;20015;-81
2021/11/15 08:47:47;;;;;;;0.50;0.50;;;;;;;0.50;71.02;101746.53;6331118;22;20026;-81
2021/11/15 08:50:13;;;;;;;0.77;0.77;;;;;;;0.49;71.24;101749.97;6331040;22;20022;-77
2021/11/15 08:52:39;;;;;;;0.80;0.80;;;;;;;0.35;70.99;101744.59;6330884;22;20019;-77
2021/11/15 08:55:06;;;;;;;0.90;0.90;;;;;;;0.36;71.63;101735.19;6329715;22;20489;-79
2021/11/15 08:57:32;;;;;;;2.97;1.17;;;;;;;0.36;71.53;101751.44;6303864;22;20023;-78
2021/11/15 08:59:58;;;;;;;1.10;1.10;;;;;;;0.40;71.25;101760.06;6330244;22;20026;-77
2021/11/15 09:02:24;;;;;;;1.40;1.00;;;;;;;0.35;71.82;101770.28;6331981;22;20068;-80
2021/11/15 09:12:18;;;;;;;3.70;0.95;;;;;;;0.38;71.42;101795.16;6296534;22;20030;-80
2021/11/15 09:14:44;;;;;;;1.10;1.10;;;;;;;0.32;71.25;101787.34;6332537;22;20046;-79
2021/11/15 09:17:10;;;;;;;0.73;0.73;;;;;;;0.35;71.62;101805.38;6334092;22;20019;-77
2021/11/15 09:19:38;;;;;;;0.63;0.63;;;;;;;0.42;70.64;101792.69;6332570;22;20068;-76
2021/11/15 09:22:04;;;;;;;0.80;0.80;;;;;;;0.45;70.64;101789.28;6334025;22;20018;-77
2021/11/15 09:24:31;;;;;;;0.77;0.77;;;;;;;0.40;70.97;101780.63;6333721;22;20415;-76
2021/11/15 09:26:57;;;;;;;1.00;1.00;;;;;;;0.47;70.71;101806.44;6332260;22;20953;-78
2021/11/15 09:29:23;;;;;;;1.23;1.23;;;;;;;0.41;70.96;101802.91;6257447;22;20076;-79
2021/11/15 09:31:49;;;;;;;2.28;2.17;;;;;;;0.39;70.64;101815.72;6313773;22;20029;-78
2021/11/15 09:34:16;;;;;;;1.15;1.15;;;;;;;0.45;70.64;101813.28;6340827;22;20022;-79
2021/11/15 09:36:42;;;;;;;1.20;1.15;;;;;;;0.43;70.66;101809.78;6343385;22;20045;-79
2021/11/15 09:39:08;;;;;;;1.00;1.00;;;;;;;0.49;70.28;101827.88;6343661;22;20015;-80
2021/11/15 09:41:36;;;;;;;6.07;1.67;;;;;;;0.51;71.11;101833.06;6334454;22;20092;-79
2021/11/15 09:44:06;;;;;;;2.60;1.45;;;;;;;0.53;70.59;101836.50;6339414;22;20022;-81
2021/11/15 09:46:32;;;;;;;0.73;0.73;;;;;;;0.61;69.29;101840.09;6341845;22;20018;-82
2021/11/15 09:49:04;;;;;;;4.25;1.88;;;;;;;0.59;69.03;101826.34;6343173;22;20011;-81
2021/11/15 09:51:30;;;;;;;1.30;1.20;;;;;;;0.58;68.19;101855.47;6343268;22;20113;-81
2021/11/15 09:53:57;;;;;;;0.70;0.70;;;;;;;0.56;66.34;101831.44;6346242;22;20021;-82
2021/11/15 09:56:23;;;;;;;0.88;0.88;;;;;;;0.60;66.35;101838.34;6342740;22;20014;-82
2021/11/15 09:58:50;;;;;;;1.88;1.75;;;;;;;0.57;66.92;101840.88;6340967;22;20025;-82
2021/11/15 10:01:16;;;;;;;2.00;1.08;;;;;;;0.50;65.72;101815.91;6340118;22;20018;-82
2021/11/15 10:03:43;;;;;;;0.90;0.90;;;;;;;0.63;65.87;101847.81;6339844;22;20023;-80
2021/11/15 10:06:09;;;;;;;0.70;0.70;;;;;;;0.71;66.23;101847.13;6305673;22;20019;-78
2021/11/15 10:08:48;;;;;;;1.33;1.33;;;;;;;0.71;66.31;101847.13;6328412;22;20018;-80
2021/11/15 10:11:15;;;;;;;2.28;2.17;;;;;;;0.73;65.96;101860.00;6301568;22;20018;-78
2021/11/15 10:13:44;;;;;;;0.80;0.80;;;;;;;0.65;65.51;101847.03;6302917;22;20431;-79
2021/11/15 10:16:21;;;;;;;0.85;0.85;;;;;;;0.63;66.15;101856.41;6331991;22;20014;-79
2021/11/15 10:18:57;;;;;;;6.50;0.85;;;;;;;0.67;66.38;101868.47;6328420;22;20435;-79
2021/11/15 10:21:35;;;;;;;0.60;0.60;;;;;;;0.72;66.59;101868.56;6305361;22;20025;-79
2021/11/15 10:24:02;;;;;;;0.90;0.90;;;;;;;0.77;65.94;101867.78;6333854;22;20025;-81
2021/11/15 10:26:37;;;;;;;0.80;0.80;;;;;;;0.74;66.19;101883.16;6333427;22;20015;-80
2021/11/15 10:29:26;;;;;;;0.93;0.93;;;;;;;0.62;65.66;101882.97;6306356;22;20034;-80
2021/11/15 10:32:15;;;;;;;1.60;1.30;;;;;;;0.58;65.69;101891.44;6333727;22;20037;-81
2021/11/15 10:34:54;;;;;;;0.60;0.60;;;;;;;0.65;64.82;101892.41;6332129;22;20025;-80
2021/11/15 10:37:27;;;;;;;1.30;1.30;;;;;;;0.61;65.93;101896.63;6332970;22;20181;-79
2021/11/15 10:40:00;;;;;;;0.93;0.93;;;;;;;0.75;65.46;101894.31;6332510;22;20429;-80
2021/11/15 10:42:34;;;;;;;0.50;0.50;;;;;;;0.70;65.68;101883.94;6336377;22;20065;-80
2021/11/15 10:45:03;;;;;;;0.90;0.90;;;;;;;0.72;66.01;101894.28;6311417;22;20014;-79
2021/11/15 10:47:33;;;;;;;0.90;0.90;;;;;;;0.68;66.12;101892.47;6333219;22;20118;-80
2021/11/15 10:50:03;;;;;;;2.22;1.30;;;;;;;0.60;66.61;101896.59;6331414;22;20015;-80
2021/11/15 10:52:32;;;;;;;0.95;0.95;;;;;;;0.55;66.72;101891.38;6333000;22;20124;-78
2021/11/15 10:55:04;;;;;;;1.02;1.02;;;;;;;0.60;67.08;101904.28;6332894;22;20056;-80
2021/11/15 10:57:33;;;;;;;1.88;1.77;;;;;;;0.54;66.99;101892.22;6332710;22;20069;-80
2021/11/15 11:00:19;;;;;;;6.60;1.38;;;;;;;0.49;66.63;101906.69;6331978;22;20019;-83
2021/11/15 11:03:10;;;;;;;0.70;0.70;;;;;;;0.51;66.19;101910.16;6327674;22;20456;-80
2021/11/15 11:05:42;;;;;;;0.77;0.77;;;;;;;0.52;65.96;101914.47;6311778;22;20480;-80
2021/11/15 11:12:14;;;;;;;2.03;1.45;;;;;;;0.46;65.10;101901.47;6331433;22;20403;-79
2021/11/15 11:14:41;;;;;;;0.70;0.70;;;;;;;0.47;64.57;101913.47;6330860;22;20489;-80
2021/11/15 11:17:08;;;;;;;0.70;0.70;;;;;;;0.44;64.75;101928.84;6331178;22;20015;-79
2021/11/15 11:20:07;;;;;;;1.60;1.17;;;;;;;0.46;65.24;101928.03;6331987;22;20026;-81
2021/11/15 11:25:25;;;;;;;2.17;0.88;;;;;;;0.46;65.43;101935.72;6334939;22;20358;-77
2021/11/15 11:27:51;;;;;;;1.10;1.10;;;;;;;0.37;65.85;101927.84;6331420;22;20014;-77
2021/11/15 11:30:21;;;;;;;0.75;0.75;;;;;;;0.38;65.86;101928.72;6331019;22;20373;-76
2021/11/15 11:33:15;;;;;;;0.87;0.87;;;;;;;0.38;65.79;101947.56;6309006;22;20027;-78
2021/11/15 11:35:44;;;;;;;0.70;0.70;;;;;;;0.41;66.40;101944.19;6353086;22;20253;-77
2021/11/15 11:38:10;;;;;;;13.52;1.05;;;;;;;0.41;66.18;101954.47;6278178;22;20014;-78
2021/11/15 11:40:36;;;;;;;1.98;1.25;;;;;;;0.37;65.85;101948.41;6304365;22;20067;-78
2021/11/15 11:43:02;;;;;;;0.98;0.98;;;;;;;0.30;65.33;101948.25;6278465;22;20050;-79
2021/11/15 11:46:27;;;;;;;1.00;1.00;;;;;;;0.29;64.77;101967.06;6339979;22;20019;-78
2021/11/15 11:48:56;;;;;;;0.90;0.90;;;;;;;0.06;65.25;101940.91;6267461;22;20027;-78
2021/11/15 11:51:23;;;;;;;0.90;0.90;;;;;;;0.21;64.46;101956.63;6275371;22;20449;-80
2021/11/15 11:54:14;;;;;;;1.90;1.80;;;;;;;0.12;65.10;101973.56;6275962;22;20026;-79